• Join FlightAware (Why Join?)
  • Login
  • US Flag 
05:02PM EST


 

Airport Tracker/Info


-or-


 

Live Flight TrackerFlight Track Log ✈ UAL4257 ✈ 20-Apr-2013 ✈ MMMY / MTY - KIAH

Flight Track Log - Related Links

Times and Time Zones

All times are in EDT time to prevent confusion due to time zone crossing. See the UAL4257 flight status page for this flight to view local times or setup timezone preferences in your user account.

Time Position Orientation Groundspeed Altitude Reporting Facility
EDT Latitude Longitude Course Direction KTS MPH feet Rate Location/Type
12:16PM 25.9725 -99.8483 44° Northeast 292 336 11,800  Level Houston Center
12:17PM 26.3398 -99.5017 44° Northeast  Level Estimated
12:18PM 26.4122 -99.4230 44° Northeast  Level Estimated
12:18PM 26.0425 -99.7756 43° Northeast 321 369 13,100  Level Houston Center
12:19PM 26.4846 -99.3443 44° Northeast  Level Estimated
12:19PM 26.1106 -99.6944 47° Northeast 341 392 14,300  Level Houston Center
12:20PM 26.5569 -99.2654 44° Northeast  Level Estimated
12:20PM 26.1808 -99.6094 47° Northeast 357 411 15,500  Level Houston Center
12:21PM 26.6292 -99.1864 44° Northeast  Level Estimated
12:21PM 26.2514 -99.5211 48° Northeast 370 426 16,600  Level Houston Center
12:22PM 26.7014 -99.1073 44° Northeast  Level Estimated
12:22PM 26.3219 -99.4336 48° Northeast 376 433 17,800  Level Houston Center
12:23PM 26.4097 -99.3267 47° Northeast 383 441 19,000 1,140 Climbing Houston Center
12:24PM 26.4858 -99.2397 46° Northeast 390 449 20,200 1,140 Climbing Houston Center
12:25PM 26.5678 -99.1586 42° Northeast 394 453 21,400 1,080 Climbing Houston Center
12:26PM 26.6517 -99.0761 41° Northeast 397 457 22,500 1,080 Climbing Houston Center
12:27PM 26.7347 -98.9928 42° Northeast 401 461 23,700 1,260 Climbing Houston Center
12:28PM 26.8356 -98.8928 41° Northeast 404 465 25,200 1,200 Climbing Houston Center
12:29PM 26.9194 -98.8067 42° Northeast 409 471 26,300 840 Climbing Houston Center
12:30PM 27.0044 -98.7211 42° Northeast 411 473 27,000 300 Climbing Houston Center
12:31PM 27.0925 -98.6319 42° Northeast 425 489 27,000  Level Houston Center
12:32PM 27.1850 -98.5394 42° Northeast 443 510 27,000  Level Houston Center
12:33PM 27.2972 -98.4236 43° Northeast 457 526 27,000  Level Houston Center
12:34PM 27.3936 -98.3272 42° Northeast 464 534 27,000  Level Houston Center
12:35PM 27.4919 -98.2317 41° Northeast 468 539 27,000  Level Houston Center
12:36PM 27.5908 -98.1342 41° Northeast 472 543 27,000  Level Houston Center
12:37PM 27.6892 -98.0367 41° Northeast 472 543 27,000  Level Houston Center
12:38PM 27.8081 -97.9200 41° Northeast 473 544 27,000  Level Houston Center
12:39PM 27.9072 -97.8233 41° Northeast 472 543 27,000  Level Houston Center
12:40PM 28.0044 -97.7278 41° Northeast 472 543 27,000  Level Houston Center
12:41PM 28.1028 -97.6303 41° Northeast 471 542 27,000  Level Houston Center
12:42PM 28.2011 -97.5331 41° Northeast 469 540 27,000  Level Houston Center
12:43PM 28.3189 -97.4158 41° Northeast 468 539 27,000  Level Houston Center
12:44PM 28.4175 -97.3169 41° Northeast 472 543 27,000 -300 Level Houston Center
12:45PM 28.5142 -97.2194 42° Northeast 467 537 26,400 -720 Descending Houston Center
12:47PM 28.6075 -97.1244 42° Northeast 453 521 25,500 -900 Descending Houston Center
12:48PM 28.7044 -97.0278 41° Northeast 462 532 24,600 -1,020 Descending Houston Center
12:49PM 28.8217 -96.9089 42° Northeast 470 541 23,400 -1,020 Descending Houston Center
12:50PM 28.9181 -96.8103 42° Northeast 468 539 22,500 -1,080 Descending Houston Center
12:51PM 29.0108 -96.7156 42° Northeast 458 527 21,200 -1,320 Descending Houston Center
12:52PM 29.1033 -96.6222 41° Northeast 450 518 19,800 -1,440 Descending Houston Center
12:52PM 29.1731 -96.5503 42° Northeast 435 501 18,700 -1,500 Descending Houston Center
12:53PM 29.1906 -96.5336 40° Northeast 427 491 18,300 -2,040 Descending Houston Center
12:54PM 29.2756 -96.4458 42° Northeast 393 452 16,200 -2,520 Descending Houston Center
12:55PM 29.3547 -96.3653 42° Northeast 393 452 13,700 -2,640 Descending Houston Center
12:56PM 29.4397 -96.2792 41° Northeast 378 435 10,800 -1,740 Descending Houston Center
12:57PM 29.5169 -96.1986 42° Northeast 344 396 10,000 -420 Descending Houston Center
12:58PM 29.5747 -96.1064 54° Northeast 353 406 9,900 -540 Descending Houston Center
12:59PM 29.6208 -96.0189 59° Northeast 294 338 9,000 -1,500 Descending Houston Center
01:00PM 29.6617 -95.9567 53° Northeast 276 318 7,200 -1,620 Descending Houston Center
01:00PM 29.6686 -95.9522 29° Northeast 272 313 7,100 -240 Descending Houston Center
01:01PM 29.7250 -95.9108 33° Northeast 256 295 7,000 -120 Descending Houston Center
01:01PM 29.7419 -95.8972 35° Northeast 264 304 7,000  Level Houston Center
01:02PM 29.7836 -95.8633 35° Northeast 261 300 7,000  Level Houston Center
01:02PM 29.8008 -95.8478 38° Northeast 261 300 7,000  Level Houston Center
01:03PM 29.8519 -95.8047 36° Northeast 268 308 7,000 -480 Level Houston Center
01:04PM 29.8961 -95.7347 54° Northeast 267 307 6,200 -1,380 Descending Houston Center
01:05PM 29.9342 -95.6650 58° Northeast 255 293 4,200 -1,740 Descending Houston Center
01:05PM 29.9408 -95.6558 50° Northeast 260 299 4,000 -1,020 Descending Houston Center
01:06PM 29.9703 -95.6006 58° Northeast 236 272 3,200 -1,020 Descending Houston Center
01:06PM 29.9772 -95.5908 50° Northeast 248 285 3,000 -180 Descending Houston Center
01:07PM 29.9939 -95.5242 74° East 237 273 3,000 -540 Level Houston Center
01:08PM 29.9919 -95.4678 92° East 163 188 2,100 -1,080 Descending Houston Center
01:08PM 29.9936 -95.4542 82° East 201 231 1,900 -780 Descending Houston Center
01:09PM 29.9925 -95.4292 93° East 129 148 1,400 -720 Descending Houston Center
01:09PM 29.9939 -95.4125 84° East 163 188 1,200 -720 Descending Houston Center
01:10PM 29.9931 -95.3881 92° East 128 147 700 -720 Descending Houston Center
01:10PM 29.9944 -95.3714 84° East 141 162 500 -480 Descending Houston Center
01:12PM 29.9833 -95.3333 49° Northeast  Level FlightAware Approximate
01:19PM 29.9844 -95.3414 49° Northeast  Level Estimated